This is the latest recevied weather packets stored in our database for station/object N9UMJ-12. If no packets are shown the sender has not sent any weather packets the latest 10 day(s).
| Time | Temp. | Humidity | Pressure | Rain* | Wind** | Luminosity | Snow |
|---|---|---|---|---|---|---|---|
| 1778114739 | 12.22° C | 69% | 1015.3 hPa | 0 mm | - | 4 W/m² | - |
| 1778113516 | 12.78° C | 64% | 1015.2 hPa | 0 mm | - | 18 W/m² | - |
| 1778111720 | 14.44° C | 58% | 1015 hPa | 0 mm | - | 53 W/m² | - |
| 1778105739 | 15.56° C | 59% | 1014.6 hPa | 0 mm | - | 347 W/m² | - |
| 1778102720 | 14.44° C | 63% | 1014.9 hPa | 0 mm | - | 464 W/m² | - |
| 1778099718 | 14.44° C | 64% | 1014.9 hPa | 0 mm | - | 430 W/m² | - |
| 1778096119 | 15° C | 69% | 1014.9 hPa | 0 mm | - | 859 W/m² | - |
| 1778095519 | 14.44° C | 69% | 1015 hPa | 0 mm | - | 715 W/m² | - |
| 1778092517 | 13.89° C | 71% | 1015.1 hPa | 0 mm | - | 405 W/m² | - |
| 1778090717 | 13.89° C | 70% | 1014.8 hPa | 0 mm | - | 467 W/m² | - |
| 1778089540 | 13.89° C | 72% | 1014.8 hPa | 0 mm | - | 710 W/m² | - |
| 1778083519 | 12.22° C | 76% | 1015.3 hPa | 0 mm | - | 630 W/m² | - |
| 1778078141 | 10° C | 90% | 1014.9 hPa | 0 mm | - | 383 W/m² | - |
| 1778076950 | 9.44° C | 92% | 1014.9 hPa | 0 mm | - | 279 W/m² | - |
| 1778076330 | 9.44° C | 91% | 1014.8 hPa | 0 mm | - | 239 W/m² | - |
| 1778074531 | 8.89° C | 94% | 1013.8 hPa | 0 mm | - | 207 W/m² | - |
| 1778072731 | 8.33° C | 95% | 1013.6 hPa | 0 mm | - | 181 W/m² | - |
| 1778072131 | 8.33° C | 95% | 1013.3 hPa | 0 mm | - | 96 W/m² | - |
| 1778070932 | 8.33° C | 96% | 1013.6 hPa | 0 mm | - | 101 W/m² | - |
| 1778069732 | 7.78° C | 98% | 1013.8 hPa | 0 mm | - | 95 W/m² | - |
| 1778067317 | 7.22° C | 98% | 1013.2 hPa | 0 mm | - | 28 W/m² | - |
| 1778066138 | 7.22° C | 98% | 1012.5 hPa | 0 mm | - | 12 W/m² | - |
| 1778065518 | 7.22° C | 98% | 1012.4 hPa | 0 mm | - | 7 W/m² | - |
| 1778064918 | 7.22° C | 97% | 1011.8 hPa | 0 mm | - | 4 W/m² | - |
| 1778062519 | 6.67° C | 97% | 1011.8 hPa | 0 mm | - | 0 W/m² | - |
* Rain latest hour (hover to see other rain measurements)
** Current wind speed in m/s (hover to see current wind gust speed)